Time;durP1;ratioP1;P1;durP2;ratioP2;P2;SDS_P1;SDS_P2;PMS_P1;PMS_P2;Temp;Humidity;BMP_temperature;BMP_pressure;BME280_temperature;BME280_humidity;BME280_pressure;Samples;Min_cycle;Max_cycle;Signal;HPM_P1;HPM_P2
2024/03/15 00:02:15;;;;;;;27.37;16.80;;;;;;;8.32;100.00;100625.19;5030707;28;20219;-73
2024/03/15 00:04:42;;;;;;;30.17;18.50;;;;;;;8.31;100.00;100626.28;5033608;28;20230;-73
2024/03/15 00:07:08;;;;;;;29.80;16.63;;;;;;;8.28;100.00;100626.13;5042456;28;20380;-73
2024/03/15 00:09:35;;;;;;;29.93;16.40;;;;;;;8.26;100.00;100618.53;5021820;28;20213;-73
2024/03/15 00:12:01;;;;;;;28.80;17.23;;;;;;;8.23;100.00;100618.38;5029651;28;20206;-72
2024/03/15 00:14:28;;;;;;;32.57;17.97;;;;;;;8.21;100.00;100617.91;5024100;28;20687;-73
2024/03/15 00:16:54;;;;;;;32.57;18.33;;;;;;;8.19;100.00;100614.78;5021191;28;20227;-73
2024/03/15 00:19:21;;;;;;;33.43;19.10;;;;;;;8.16;100.00;100612.75;5029074;28;20214;-73
2024/03/15 00:21:47;;;;;;;30.77;17.87;;;;;;;8.15;100.00;100613.84;5037437;28;20208;-73
2024/03/15 00:24:14;;;;;;;29.17;17.97;;;;;;;8.13;100.00;100608.88;5023847;28;20224;-73
2024/03/15 00:26:41;;;;;;;32.73;18.50;;;;;;;8.12;100.00;100604.72;5027014;28;20226;-73
2024/03/15 00:29:08;;;;;;;30.10;17.17;;;;;;;8.10;100.00;100598.22;5025806;28;20253;-72
2024/03/15 00:31:34;;;;;;;31.97;18.13;;;;;;;8.08;100.00;100603.78;5024909;28;20201;-74
2024/03/15 00:34:01;;;;;;;34.97;17.83;;;;;;;8.08;100.00;100603.03;5021534;28;20716;-73
2024/03/15 00:36:30;;;;;;;34.97;20.07;;;;;;;8.05;100.00;100607.03;5026524;28;20597;-73
2024/03/15 00:38:56;;;;;;;33.70;19.20;;;;;;;8.06;100.00;100594.66;5026580;28;20240;-73
2024/03/15 00:41:23;;;;;;;37.47;18.50;;;;;;;8.05;100.00;100591.25;5024258;28;20208;-73
2024/03/15 00:43:51;;;;;;;31.57;18.80;;;;;;;8.05;100.00;100593.09;5022693;28;20665;-73
2024/03/15 00:46:18;;;;;;;35.90;19.73;;;;;;;8.04;100.00;100584.47;5026895;28;20607;-73
2024/03/15 00:48:44;;;;;;;33.10;18.53;;;;;;;8.05;100.00;100586.00;5021451;28;20210;-73
2024/03/15 00:51:12;;;;;;;38.03;19.33;;;;;;;8.05;100.00;100574.69;5025585;28;20211;-74
2024/03/15 00:53:39;;;;;;;37.30;20.60;;;;;;;8.05;100.00;100586.00;5025543;28;20274;-73
2024/03/15 00:56:06;;;;;;;36.50;19.57;;;;;;;8.05;100.00;100575.47;5015430;28;20238;-73
2024/03/15 00:58:32;;;;;;;38.67;19.97;;;;;;;8.06;100.00;100574.41;5042960;23;20485;-73
2024/03/15 01:00:59;;;;;;;33.20;19.67;;;;;;;8.05;100.00;100567.59;5007873;28;20202;-73
2024/03/15 01:03:25;;;;;;;36.33;21.10;;;;;;;8.06;100.00;100566.50;5010877;28;20217;-74
2024/03/15 01:05:52;;;;;;;34.80;20.17;;;;;;;8.05;100.00;100569.44;5006075;28;20209;-75
2024/03/15 01:08:19;;;;;;;37.63;21.53;;;;;;;8.04;100.00;100566.06;5020589;28;20217;-74
2024/03/15 01:10:46;;;;;;;35.40;19.00;;;;;;;8.02;100.00;100565.56;5022960;28;20204;-74
2024/03/15 01:13:12;;;;;;;31.07;19.07;;;;;;;8.04;100.00;100557.38;5025912;28;20680;-74
2024/03/15 01:15:39;;;;;;;34.23;20.00;;;;;;;8.03;100.00;100555.84;5028175;28;20209;-74
2024/03/15 01:18:06;;;;;;;39.17;21.20;;;;;;;8.03;100.00;100559.22;5027188;28;20223;-74
2024/03/15 01:20:33;;;;;;;36.60;19.90;;;;;;;8.03;100.00;100548.69;5028277;28;20198;-74
2024/03/15 01:23:00;;;;;;;35.07;20.50;;;;;;;8.03;100.00;100547.94;5026954;28;20202;-74
2024/03/15 01:25:27;;;;;;;35.73;21.10;;;;;;;8.02;100.00;100552.41;5028466;28;20813;-74
2024/03/15 01:27:53;;;;;;;33.53;19.30;;;;;;;8.02;100.00;100549.03;5024562;28;20225;-73
2024/03/15 01:30:20;;;;;;;37.20;19.90;;;;;;;8.02;100.00;100541.16;5025752;28;20566;-75
2024/03/15 01:32:46;;;;;;;35.20;20.60;;;;;;;8.00;100.00;100535.41;5022992;28;20198;-74
2024/03/15 01:35:13;;;;;;;34.30;19.80;;;;;;;8.00;100.00;100533.56;5023066;28;20216;-74
2024/03/15 01:37:41;;;;;;;34.53;19.87;;;;;;;7.99;100.00;100534.66;5025099;28;20209;-73
2024/03/15 01:40:09;;;;;;;35.43;19.27;;;;;;;7.99;100.00;100532.03;5008557;28;20624;-75
2024/03/15 01:42:35;;;;;;;37.00;20.27;;;;;;;8.00;100.00;100530.16;5025364;28;20227;-74
2024/03/15 01:45:02;;;;;;;33.97;19.57;;;;;;;7.98;100.00;100537.56;5024627;28;20216;-73
2024/03/15 01:47:28;;;;;;;32.70;18.93;;;;;;;7.97;100.00;100530.78;5026573;28;20758;-73
2024/03/15 01:49:55;;;;;;;33.27;19.10;;;;;;;7.95;100.00;100528.44;5026405;28;20200;-74
2024/03/15 01:52:21;;;;;;;37.00;20.83;;;;;;;7.94;100.00;100537.44;5026857;28;20344;-74
2024/03/15 01:54:48;;;;;;;35.17;19.93;;;;;;;7.92;100.00;100530.94;5017469;28;20200;-72
2024/03/15 01:57:14;;;;;;;32.10;19.60;;;;;;;7.91;100.00;100542.50;5040166;28;20215;-73
2024/03/15 01:59:41;;;;;;;36.43;19.73;;;;;;;7.87;100.00;100531.84;5051926;28;23286;-73
2024/03/15 02:02:09;;;;;;;35.57;19.90;;;;;;;7.85;100.00;100534.00;5040966;28;20198;-74
2024/03/15 02:04:35;;;;;;;33.53;19.13;;;;;;;7.84;100.00;100531.69;5026648;28;20262;-73
2024/03/15 02:07:02;;;;;;;32.43;17.73;;;;;;;7.82;100.00;100533.84;5036141;28;20211;-73
2024/03/15 02:09:29;;;;;;;35.07;18.60;;;;;;;7.81;100.00;100529.69;5026624;28;20232;-74
2024/03/15 02:11:55;;;;;;;34.47;17.90;;;;;;;7.79;100.00;100516.06;5023477;28;20705;-74
2024/03/15 02:14:22;;;;;;;34.60;19.30;;;;;;;7.78;100.00;100527.66;5028958;28;20199;-73
2024/03/15 02:16:48;;;;;;;33.77;18.33;;;;;;;7.77;100.00;100526.88;5025506;28;20211;-73
2024/03/15 02:19:15;;;;;;;33.07;19.07;;;;;;;7.76;100.00;100521.94;5026643;28;20229;-74
2024/03/15 02:21:41;;;;;;;34.13;18.80;;;;;;;7.76;100.00;100527.19;5022347;28;20210;-73
2024/03/15 02:24:08;;;;;;;32.73;18.50;;;;;;;7.76;100.00;100527.19;5025128;28;20226;-74
2024/03/15 02:26:34;;;;;;;32.37;19.87;;;;;;;7.74;100.00;100518.84;5038065;28;20246;-73
2024/03/15 02:29:02;;;;;;;35.70;18.93;;;;;;;7.73;100.00;100520.72;5026843;28;20716;-73
2024/03/15 02:31:28;;;;;;;32.67;17.90;;;;;;;7.72;100.00;100516.50;5024310;28;20210;-73
2024/03/15 02:33:55;;;;;;;34.70;19.07;;;;;;;7.70;100.00;100516.06;5023287;28;20200;-74
2024/03/15 02:36:22;;;;;;;36.20;18.80;;;;;;;7.70;100.00;100516.06;5040978;28;20208;-74
2024/03/15 02:38:48;;;;;;;33.93;19.47;;;;;;;7.68;100.00;100510.34;5022688;28;20411;-73
2024/03/15 02:41:15;;;;;;;28.17;17.20;;;;;;;7.66;100.00;100509.84;5046102;28;20687;-74
2024/03/15 02:43:42;;;;;;;34.43;18.60;;;;;;;7.66;100.00;100506.47;5025468;28;20884;-73
2024/03/15 02:46:08;;;;;;;35.00;18.97;;;;;;;7.62;100.00;100505.53;5021522;28;20199;-73
2024/03/15 02:48:36;;;;;;;30.63;18.53;;;;;;;7.61;100.00;100506.63;5023964;28;20220;-72
2024/03/15 02:51:02;;;;;;;33.30;17.50;;;;;;;7.59;100.00;100506.91;5025317;28;20211;-72
2024/03/15 02:53:29;;;;;;;33.30;19.00;;;;;;;7.57;100.00;100503.81;5025260;28;20668;-73
2024/03/15 02:55:56;;;;;;;31.67;17.20;;;;;;;7.56;100.00;100504.13;5023315;28;20199;-74
2024/03/15 02:58:22;;;;;;;30.53;18.33;;;;;;;7.54;100.00;100507.06;5027274;28;20232;-72
2024/03/15 03:00:50;;;;;;;33.83;17.73;;;;;;;7.51;100.00;100505.03;5039538;28;20216;-73
2024/03/15 03:03:17;;;;;;;31.73;18.77;;;;;;;7.49;100.00;100504.59;5053690;28;20278;-73
2024/03/15 03:05:43;;;;;;;31.60;16.87;;;;;;;7.48;100.00;100503.03;5017974;28;20727;-73
2024/03/15 03:08:10;;;;;;;33.30;18.17;;;;;;;7.48;100.00;100502.25;5029703;28;20227;-73
2024/03/15 03:10:36;;;;;;;31.87;18.17;;;;;;;7.46;100.00;100507.81;5028745;28;20233;-74
2024/03/15 03:13:03;;;;;;;33.23;18.67;;;;;;;7.44;100.00;100503.94;5026576;28;20206;-74
2024/03/15 03:15:30;;;;;;;31.23;17.60;;;;;;;7.43;100.00;100505.03;5026687;28;20203;-74
2024/03/15 03:17:57;;;;;;;36.40;18.90;;;;;;;7.40;100.00;100498.53;5027945;28;20692;-73
2024/03/15 03:20:24;;;;;;;33.20;18.13;;;;;;;7.39;100.00;100498.81;5047149;28;20252;-74
2024/03/15 03:22:51;;;;;;;30.57;17.07;;;;;;;7.37;100.00;100503.63;5044317;28;20204;-74
2024/03/15 03:25:18;;;;;;;34.30;17.90;;;;;;;7.34;100.00;100504.22;5031367;28;20273;-74
2024/03/15 03:27:45;;;;;;;30.33;17.90;;;;;;;7.32;100.00;100501.91;5029330;28;20207;-74
2024/03/15 03:30:11;;;;;;;34.73;17.13;;;;;;;7.29;100.00;100502.53;5028807;28;20203;-73
2024/03/15 03:32:39;;;;;;;31.30;17.87;;;;;;;7.28;100.00;100500.19;5031427;28;20202;-74
2024/03/15 03:35:06;;;;;;;32.27;18.03;;;;;;;7.26;100.00;100502.38;5032028;28;20206;-73
2024/03/15 03:37:33;;;;;;;31.33;17.57;;;;;;;7.24;100.00;100500.03;5032100;28;20217;-74
2024/03/15 03:39:59;;;;;;;28.77;16.70;;;;;;;7.23;100.00;100505.59;5024565;28;20198;-74
2024/03/15 03:42:26;;;;;;;29.20;17.17;;;;;;;7.20;100.00;100506.22;5048747;28;20237;-73
2024/03/15 03:44:53;;;;;;;30.30;17.37;;;;;;;7.18;100.00;100503.88;5034049;28;20718;-74
2024/03/15 03:47:20;;;;;;;27.70;17.67;;;;;;;7.17;100.00;100497.09;5028639;28;20237;-74
2024/03/15 03:49:47;;;;;;;35.73;19.03;;;;;;;7.14;100.00;100497.69;5021755;28;20226;-73
2024/03/15 03:52:13;;;;;;;32.30;17.83;;;;;;;7.14;100.00;100496.94;5028529;28;20214;-74
2024/03/15 03:54:40;;;;;;;32.50;18.00;;;;;;;7.14;100.00;100496.94;5033739;28;20203;-73
2024/03/15 03:57:06;;;;;;;30.57;17.30;;;;;;;7.11;100.00;100493.06;5011786;28;20217;-73
2024/03/15 03:59:33;;;;;;;33.90;19.93;;;;;;;7.13;100.00;100495.34;5021308;28;20265;-74
2024/03/15 04:01:59;;;;;;;34.27;19.67;;;;;;;7.13;100.00;100487.47;5027464;28;20207;-74
2024/03/15 04:04:26;;;;;;;32.43;18.37;;;;;;;7.14;100.00;100481.16;5023087;28;20218;-74
2024/03/15 04:06:53;;;;;;;31.30;17.80;;;;;;;7.15;100.00;100482.72;5024847;28;20725;-73
2024/03/15 04:09:19;;;;;;;33.63;17.73;;;;;;;7.14;100.00;100484.56;5027766;28;20223;-73
2024/03/15 04:11:47;;;;;;;38.13;18.80;;;;;;;7.15;100.00;100482.72;5025197;28;20198;-74
2024/03/15 04:14:14;;;;;;;32.47;17.77;;;;;;;7.16;100.00;100486.88;5028975;28;20206;-74
2024/03/15 04:16:42;;;;;;;34.03;18.60;;;;;;;7.17;100.00;100477.91;5025421;28;20667;-74
2024/03/15 04:19:09;;;;;;;32.90;17.70;;;;;;;7.17;100.00;100481.34;5028863;28;20220;-73
2024/03/15 04:21:36;;;;;;;33.17;17.90;;;;;;;7.18;100.00;100476.84;5027010;28;20237;-73
2024/03/15 04:24:03;;;;;;;32.83;16.67;;;;;;;7.19;100.00;100475.78;5011647;28;20219;-73
2024/03/15 04:26:31;;;;;;;38.33;19.67;;;;;;;7.19;100.00;100475.78;5029351;28;20222;-74
2024/03/15 04:28:57;;;;;;;34.07;18.07;;;;;;;7.18;100.00;100475.00;5025399;28;21013;-74
2024/03/15 04:31:23;;;;;;;34.27;17.87;;;;;;;7.18;100.00;100469.75;5031912;28;20207;-74
2024/03/15 04:33:50;;;;;;;32.90;18.20;;;;;;;7.19;100.00;100470.53;5027949;28;20202;-74
2024/03/15 04:36:17;;;;;;;34.53;17.47;;;;;;;7.19;100.00;100471.28;5029700;28;20191;-73
2024/03/15 04:38:43;;;;;;;34.73;18.70;;;;;;;7.18;100.00;100472.38;5025672;28;20218;-74
2024/03/15 04:41:10;;;;;;;34.27;19.00;;;;;;;7.18;100.00;100472.38;5032816;28;20216;-74
2024/03/15 04:43:37;;;;;;;36.50;17.77;;;;;;;7.18;100.00;100459.25;5027162;28;20278;-74
2024/03/15 04:46:04;;;;;;;35.33;18.83;;;;;;;7.18;100.00;100466.34;5028480;28;20265;-73
2024/03/15 04:48:30;;;;;;;32.90;17.13;;;;;;;7.18;100.00;100468.97;5009911;28;20233;-74
2024/03/15 04:50:57;;;;;;;32.03;17.33;;;;;;;7.17;100.00;100460.31;5020571;28;20202;-74
2024/03/15 04:53:23;;;;;;;38.40;18.23;;;;;;;7.16;100.00;100458.78;5041796;28;20291;-74
2024/03/15 04:55:50;;;;;;;34.50;18.53;;;;;;;7.16;100.00;100456.16;5026285;28;20199;-72
2024/03/15 04:58:16;;;;;;;34.57;18.70;;;;;;;7.18;100.00;100461.88;5029439;28;20230;-73
2024/03/15 05:00:43;;;;;;;35.43;18.67;;;;;;;7.17;100.00;100456.91;5026748;28;20213;-74
2024/03/15 05:03:11;;;;;;;32.50;17.27;;;;;;;7.19;100.00;100466.03;5026943;28;20202;-74
2024/03/15 05:05:38;;;;;;;32.37;17.33;;;;;;;7.19;100.00;100463.41;5029137;28;20933;-74
2024/03/15 05:08:06;;;;;;;37.47;17.23;;;;;;;7.19;100.00;100463.41;5029111;28;20973;-74
2024/03/15 05:10:32;;;;;;;31.57;17.67;;;;;;;7.18;100.00;100461.09;5028883;28;20194;-74
2024/03/15 05:12:59;;;;;;;33.00;17.20;;;;;;;7.17;100.00;100457.69;5025510;28;20799;-73
2024/03/15 05:15:25;;;;;;;32.97;17.57;;;;;;;7.18;100.00;100463.72;5030353;28;20214;-74
2024/03/15 05:17:52;;;;;;;29.83;17.10;;;;;;;7.17;100.00;100468.19;5025321;28;20222;-74
2024/03/15 05:20:18;;;;;;;28.80;16.43;;;;;;;7.17;100.00;100462.16;5022158;28;20203;-74
2024/03/15 05:22:45;;;;;;;31.73;17.43;;;;;;;7.15;100.00;100465.09;5021227;28;20246;-74
2024/03/15 05:25:14;;;;;;;35.03;17.70;;;;;;;7.15;100.00;100459.84;5028671;28;20223;-74
2024/03/15 05:27:40;;;;;;;27.50;16.00;;;;;;;7.15;100.00;100462.47;5028398;28;20248;-74
2024/03/15 05:30:07;;;;;;;33.37;17.53;;;;;;;7.14;100.00;100454.91;5002635;28;20583;-73
2024/03/15 05:32:33;;;;;;;31.93;17.80;;;;;;;7.14;100.00;100462.78;5027795;28;20579;-73
2024/03/15 05:35:00;;;;;;;31.30;15.87;;;;;;;7.12;100.00;100449.97;5024805;28;20586;-74
2024/03/15 05:37:27;;;;;;;33.17;17.27;;;;;;;7.12;100.00;100452.59;5025239;28;20283;-74
2024/03/15 05:39:54;;;;;;;34.30;17.20;;;;;;;7.12;100.00;100455.22;5023773;28;20286;-73
2024/03/15 05:42:20;;;;;;;35.10;17.90;;;;;;;7.13;100.00;100455.97;5038092;28;20230;-74
2024/03/15 05:44:47;;;;;;;31.07;16.33;;;;;;;7.14;100.00;100452.28;5028946;28;20211;-73
2024/03/15 05:47:13;;;;;;;28.73;15.60;;;;;;;7.15;100.00;100443.31;5025379;28;20218;-74
2024/03/15 05:49:43;;;;;;;30.73;17.27;;;;;;;7.17;100.00;100443.78;5024480;28;20803;-73
2024/03/15 05:52:10;;;;;;;29.90;16.90;;;;;;;7.19;100.00;100454.78;5027595;28;20202;-74
2024/03/15 05:54:37;;;;;;;31.03;16.83;;;;;;;7.22;100.00;100448.91;5021509;28;20707;-74
2024/03/15 05:57:04;;;;;;;30.93;17.57;;;;;;;7.25;100.00;100454.31;5014838;28;20259;-74
2024/03/15 05:59:31;;;;;;;35.10;18.53;;;;;;;7.27;100.00;100460.03;5020966;28;20221;-74
2024/03/15 06:01:57;;;;;;;32.87;16.50;;;;;;;7.30;100.00;100459.41;5026541;28;20226;-75
2024/03/15 06:04:24;;;;;;;33.37;17.70;;;;;;;7.34;100.00;100459.56;5022407;28;20680;-73
2024/03/15 06:06:50;;;;;;;34.93;17.77;;;;;;;7.37;100.00;100458.97;5005578;28;20226;-74
2024/03/15 06:09:17;;;;;;;33.30;17.73;;;;;;;7.41;100.00;100465.16;5021442;28;20232;-74
2024/03/15 06:11:43;;;;;;;38.57;18.97;;;;;;;7.44;100.00;100451.41;5023121;28;20208;-74
2024/03/15 06:14:11;;;;;;;35.77;18.57;;;;;;;7.49;100.00;100461.75;5026661;28;20247;-74
2024/03/15 06:16:38;;;;;;;31.77;18.47;;;;;;;7.52;100.00;100448.81;5023367;28;20538;-74
2024/03/15 06:19:05;;;;;;;33.73;17.67;;;;;;;7.57;100.00;100453.88;5023693;28;20226;-74
2024/03/15 06:21:33;;;;;;;36.73;17.63;;;;;;;7.61;100.00;100467.97;5023357;28;20550;-73
2024/03/15 06:24:00;;;;;;;39.87;17.73;;;;;;;7.66;100.00;100456.53;5033275;28;20632;-73
2024/03/15 06:26:26;;;;;;;40.93;18.93;;;;;;;7.71;100.00;100459.03;5031691;28;20229;-74
2024/03/15 06:28:53;;;;;;;36.70;19.27;;;;;;;7.75;100.00;100465.19;5028567;28;20222;-75
2024/03/15 06:31:20;;;;;;;37.07;18.63;;;;;;;7.80;100.00;100470.28;5027261;28;20211;-73
2024/03/15 06:33:48;;;;;;;36.40;19.23;;;;;;;7.85;100.00;100463.03;5024710;28;20208;-74
2024/03/15 06:36:16;;;;;;;38.37;18.33;;;;;;;7.90;100.00;100473.41;5028785;28;20709;-74
2024/03/15 06:38:53;;;;;;;38.13;18.17;;;;;;;7.97;100.00;100459.78;5029714;28;20592;-74
2024/03/15 06:41:29;;;;;;;34.23;18.80;;;;;;;8.01;100.00;100463.31;5033842;28;20232;-74
2024/03/15 06:43:59;;;;;;;38.40;18.53;;;;;;;8.08;100.00;100463.66;5032912;28;20847;-74
2024/03/15 06:46:29;;;;;;;37.30;18.57;;;;;;;8.13;100.00;100460.84;5015339;28;20227;-74
2024/03/15 06:48:56;;;;;;;36.27;19.83;;;;;;;8.19;100.00;100468.25;5030650;28;20232;-74
2024/03/15 06:54:04;;;;;;;33.23;18.33;;;;;;;8.33;100.00;100452.34;4996232;28;20210;-74
2024/03/15 06:56:30;;;;;;;31.77;17.47;;;;;;;8.38;100.00;100454.81;5028135;28;20211;-74
2024/03/15 06:58:57;;;;;;;33.60;18.73;;;;;;;8.43;100.00;100460.66;5011326;28;20233;-74
2024/03/15 07:01:23;;;;;;;29.83;16.20;;;;;;;8.51;100.00;100464.34;5025908;28;20682;-74
2024/03/15 07:03:50;;;;;;;30.57;16.73;;;;;;;8.57;100.00;100457.84;5028800;28;20195;-73
2024/03/15 07:06:20;;;;;;;27.23;15.90;;;;;;;8.64;100.00;100458.13;5028169;28;20305;-73
2024/03/15 07:08:49;;;;;;;28.90;16.40;;;;;;;8.71;100.00;100458.41;5031259;28;20220;-73
2024/03/15 07:11:16;;;;;;;30.37;16.23;;;;;;;8.79;100.00;100457.59;5028311;28;20203;-74
2024/03/15 07:13:42;;;;;;;30.67;15.33;;;;;;;8.85;100.00;100453.72;5032402;28;20221;-74
2024/03/15 07:16:09;;;;;;;21.20;13.70;;;;;;;8.92;100.00;100451.34;5028008;28;20206;-74
2024/03/15 07:18:35;;;;;;;26.87;14.67;;;;;;;8.99;100.00;100460.31;5029180;28;20225;-74
2024/03/15 07:21:02;;;;;;;22.17;14.20;;;;;;;9.05;100.00;100459.03;5030375;28;20964;-74
2024/03/15 07:23:31;;;;;;;24.00;14.30;;;;;;;9.14;100.00;100451.09;5025343;28;20237;-74
2024/03/15 07:25:57;;;;;;;20.03;12.77;;;;;;;9.22;100.00;100456.31;5032096;28;20214;-74
2024/03/15 07:28:24;;;;;;;19.67;13.23;;;;;;;9.29;100.00;100458.44;5030392;28;20221;-74
2024/03/15 07:30:50;;;;;;;19.23;12.60;;;;;;;9.40;100.00;100457.75;5029809;28;20205;-74
2024/03/15 07:33:18;;;;;;;18.90;12.50;;;;;;;9.49;100.00;100468.25;5030505;28;20206;-74
2024/03/15 07:35:46;;;;;;;22.77;12.27;;;;;;;9.62;100.00;100457.44;5029088;28;20249;-75
2024/03/15 07:38:13;;;;;;;17.73;11.93;;;;;;;9.72;100.00;100469.47;5027486;28;20222;-74
2024/03/15 07:40:40;;;;;;;18.80;11.53;;;;;;;9.85;100.00;100473.72;5032293;28;20199;-74
2024/03/15 07:43:08;;;;;;;18.97;12.77;;;;;;;9.95;100.00;100478.59;5031874;28;20212;-73
2024/03/15 07:45:35;;;;;;;20.03;11.40;;;;;;;10.06;100.00;100480.56;5032602;28;20252;-74
2024/03/15 07:48:02;;;;;;;17.83;10.63;;;;;;;10.16;100.00;100480.16;5012029;28;20727;-73
2024/03/15 07:50:28;;;;;;;18.47;11.57;;;;;;;10.28;100.00;100471.50;5028012;28;20206;-74
2024/03/15 07:52:56;;;;;;;17.37;10.80;;;;;;;10.40;100.00;100469.66;5030306;28;20208;-74
2024/03/15 07:55:22;;;;;;;15.37;10.73;;;;;;;10.56;100.00;100470.56;5032382;28;20222;-74
2024/03/15 07:57:49;;;;;;;15.03;10.00;;;;;;;10.69;100.00;100468.72;5017840;28;20218;-74
2024/03/15 08:00:15;;;;;;;15.50;10.03;;;;;;;10.82;100.00;100465.00;5031692;28;20214;-73
2024/03/15 08:02:42;;;;;;;14.87;9.27;;;;;;;10.98;100.00;100464.00;5017519;28;20472;-74
2024/03/15 08:05:12;;;;;;;16.23;10.00;;;;;;;11.13;100.00;100466.00;5031817;28;20288;-74
2024/03/15 08:07:40;;;;;;;14.80;9.97;;;;;;;11.32;100.00;100465.41;5029825;28;20225;-74
2024/03/15 08:10:10;;;;;;;12.73;9.10;;;;;;;11.46;100.00;100457.91;5029020;28;20201;-74
2024/03/15 08:12:37;;;;;;;15.17;10.50;;;;;;;11.62;100.00;100459.56;5032553;28;20206;-74
2024/03/15 08:15:04;;;;;;;12.97;9.03;;;;;;;11.80;100.00;100457.44;5032213;28;20582;-74
2024/03/15 08:17:31;;;;;;;15.47;8.57;;;;;;;11.97;100.00;100463.22;5034784;28;20273;-74
2024/03/15 08:19:57;;;;;;;12.20;8.20;;;;;;;12.10;100.00;100464.69;5031095;28;20209;-74
2024/03/15 08:22:24;;;;;;;12.53;8.37;;;;;;;12.25;100.00;100468.47;5033941;28;20330;-74
2024/03/15 08:24:50;;;;;;;10.53;7.67;;;;;;;12.40;100.00;100462.44;5034984;28;20702;-75
2024/03/15 08:27:17;;;;;;;13.37;7.13;;;;;;;12.55;100.00;100464.34;5030086;28;20215;-74
2024/03/15 08:29:44;;;;;;;12.07;7.50;;;;;;;12.64;100.00;100457.00;5033664;28;20521;-74
2024/03/15 08:32:11;;;;;;;11.97;7.43;;;;;;;12.72;100.00;100456.03;5030914;28;20593;-74
2024/03/15 08:34:38;;;;;;;10.87;7.60;;;;;;;12.83;100.00;100460.50;5033363;28;20202;-74
2024/03/15 08:37:04;;;;;;;11.97;7.50;;;;;;;12.93;100.00;100457.34;5028707;28;20681;-74
2024/03/15 08:39:31;;;;;;;10.23;6.83;;;;;;;13.03;100.00;100459.50;5031242;28;20222;-73
2024/03/15 08:41:58;;;;;;;9.03;7.07;;;;;;;13.10;100.00;100456.25;5029521;28;20206;-74
2024/03/15 08:44:25;;;;;;;10.33;7.23;;;;;;;13.19;100.00;100460.22;5019408;28;20561;-74
2024/03/15 08:46:52;;;;;;;11.33;7.50;;;;;;;13.29;100.00;100461.56;5042473;28;20228;-74
2024/03/15 08:49:19;;;;;;;10.07;6.83;;;;;;;13.36;100.00;100457.19;5019007;28;20220;-74
2024/03/15 08:51:46;;;;;;;8.10;6.00;;;;;;;13.45;100.00;100454.38;5037223;28;20727;-74
2024/03/15 08:54:13;;;;;;;9.57;6.73;;;;;;;13.51;100.00;100459.03;5028935;28;20685;-74
2024/03/15 08:56:40;;;;;;;14.33;7.77;;;;;;;13.57;100.00;100457.66;5028656;28;20222;-73
2024/03/15 08:59:07;;;;;;;10.93;6.73;;;;;;;13.64;100.00;100462.34;5029802;28;20723;-74
2024/03/15 09:01:35;;;;;;;9.80;6.20;;;;;;;13.69;100.00;100460.19;5034025;28;20220;-75
2024/03/15 09:04:04;;;;;;;8.17;6.33;;;;;;;13.74;100.00;100456.47;5030715;28;20206;-74
2024/03/15 09:06:31;;;;;;;10.43;6.80;;;;;;;13.79;100.00;100456.19;5028823;28;20217;-75
2024/03/15 09:08:57;;;;;;;10.07;6.53;;;;;;;13.82;100.00;100450.97;5034478;28;20225;-73
2024/03/15 09:11:25;;;;;;;8.70;6.50;;;;;;;13.86;100.00;100451.81;5025831;28;20293;-75
2024/03/15 09:13:52;;;;;;;10.33;6.40;;;;;;;13.91;100.00;100458.69;5032199;28;20202;-74
2024/03/15 09:16:20;;;;;;;10.27;6.60;;;;;;;13.93;100.00;100449.28;5033871;28;20209;-74
2024/03/15 09:18:47;;;;;;;7.77;5.67;;;;;;;13.98;100.00;100456.22;5027805;28;20278;-75
2024/03/15 09:21:13;;;;;;;9.43;6.77;;;;;;;14.03;100.00;100446.06;5048369;28;20586;-74
2024/03/15 09:23:41;;;;;;;11.70;6.83;;;;;;;14.08;100.00;100447.69;5028401;28;20820;-74
2024/03/15 09:26:08;;;;;;;9.47;6.53;;;;;;;14.13;100.00;100442.09;5010537;28;20651;-75
2024/03/15 09:28:37;;;;;;;11.23;6.83;;;;;;;14.20;100.00;100448.31;5029801;28;20705;-74
2024/03/15 09:31:08;;;;;;;9.90;6.53;;;;;;;14.27;100.00;100443.13;5028001;28;20199;-74
2024/03/15 09:33:34;;;;;;;9.00;6.37;;;;;;;14.34;100.00;100450.47;5030368;28;20279;-74
2024/03/15 09:36:02;;;;;;;13.87;6.47;;;;;;;14.42;100.00;100444.91;5019069;28;20213;-74
2024/03/15 09:38:29;;;;;;;10.67;6.90;;;;;;;14.48;100.00;100440.06;5031297;28;20761;-75
2024/03/15 09:40:56;;;;;;;10.03;5.90;;;;;;;14.55;100.00;100440.19;5028390;28;20636;-74
2024/03/15 09:43:23;;;;;;;10.57;6.30;;;;;;;14.62;100.00;100440.31;5028808;28;20210;-75
2024/03/15 09:45:49;;;;;;;8.23;6.17;;;;;;;14.69;100.00;100443.09;5031646;28;20202;-75
2024/03/15 09:48:16;;;;;;;9.10;6.43;;;;;;;14.72;100.00;100437.03;5030225;28;20218;-74
2024/03/15 09:50:44;;;;;;;10.70;6.53;;;;;;;14.77;100.00;100428.78;5029018;28;20206;-74
2024/03/15 09:53:11;;;;;;;8.77;6.83;;;;;;;14.80;100.00;100436.03;5027807;28;20294;-75
2024/03/15 09:55:38;;;;;;;8.30;6.03;;;;;;;14.81;100.00;100438.31;5029798;28;20198;-75
2024/03/15 09:58:06;;;;;;;10.93;6.63;;;;;;;14.85;100.00;100431.19;5029642;28;20225;-74
2024/03/15 10:00:33;;;;;;;11.10;5.93;;;;;;;14.87;100.00;100428.16;5030652;28;20213;-74
2024/03/15 10:03:00;;;;;;;9.60;6.13;;;;;;;14.92;100.00;100438.50;5026834;28;20692;-74
2024/03/15 10:05:28;;;;;;;8.80;6.03;;;;;;;14.97;100.00;100432.88;5028104;28;20213;-74
2024/03/15 10:07:54;;;;;;;8.13;6.40;;;;;;;15.03;100.00;100423.47;5038738;28;20601;-75
2024/03/15 10:10:21;;;;;;;9.70;5.77;;;;;;;15.09;100.00;100422.03;5031525;28;20697;-74
2024/03/15 10:12:47;;;;;;;8.93;6.17;;;;;;;15.17;100.00;100423.69;5029676;28;20195;-73
2024/03/15 10:15:14;;;;;;;9.17;5.90;;;;;;;15.23;100.00;100428.34;5016117;28;20225;-73
2024/03/15 10:17:40;;;;;;;10.10;5.87;;;;;;;15.30;100.00;100438.28;5029541;28;20202;-74
2024/03/15 10:20:11;;;;;;;10.43;6.50;;;;;;;15.40;100.00;100424.38;5026535;28;20277;-75
2024/03/15 10:22:38;;;;;;;8.37;5.77;;;;;;;15.47;100.00;100427.16;5023033;28;20194;-74
2024/03/15 10:25:06;;;;;;;9.67;6.07;;;;;;;15.53;100.00;100423.03;5032394;28;20703;-74
2024/03/15 10:27:32;;;;;;;9.50;6.10;;;;;;;15.65;100.00;100430.78;5046680;28;20225;-74
2024/03/15 10:29:59;;;;;;;9.77;6.23;;;;;;;15.75;100.00;100430.16;5030893;28;20229;-74
2024/03/15 10:32:25;;;;;;;7.23;5.40;;;;;;;15.82;100.00;100419.56;5028876;28;20199;-75
2024/03/15 10:34:52;;;;;;;9.43;5.93;;;;;;;15.88;100.00;100424.22;5032261;28;20972;-75
2024/03/15 10:37:21;;;;;;;8.53;5.47;;;;;;;15.95;100.00;100428.84;5018368;28;20206;-75
2024/03/15 10:39:48;;;;;;;7.90;5.57;;;;;;;16.01;100.00;100425.50;5034090;28;20210;-75
2024/03/15 10:42:16;;;;;;;7.47;5.27;;;;;;;16.09;100.00;100416.44;5034499;28;20211;-74
2024/03/15 10:44:43;;;;;;;8.23;5.47;;;;;;;16.18;100.00;100422.25;5033686;28;20366;-74
2024/03/15 10:47:09;;;;;;;7.47;5.23;;;;;;;16.27;100.00;100416.63;5027544;28;20226;-74
2024/03/15 10:49:36;;;;;;;7.87;5.67;;;;;;;16.34;100.00;100417.44;5027200;28;20627;-74
2024/03/15 10:52:03;;;;;;;8.27;5.83;;;;;;;16.40;100.00;100415.25;5027851;28;20199;-74
2024/03/15 10:54:30;;;;;;;8.67;5.97;;;;;;;16.43;100.00;100423.28;5038562;28;20623;-74
2024/03/15 10:56:56;;;;;;;8.30;5.70;;;;;;;16.51;100.00;100421.44;5026577;28;20280;-75
2024/03/15 10:59:23;;;;;;;7.10;5.07;;;;;;;16.56;100.00;100419.19;5020384;28;20336;-74
2024/03/15 11:01:50;;;;;;;8.73;5.57;;;;;;;16.64;100.00;100412.00;5000917;28;20198;-74
2024/03/15 11:04:17;;;;;;;7.13;5.27;;;;;;;16.72;100.00;100414.38;5043624;28;20276;-73
2024/03/15 11:06:44;;;;;;;8.53;5.30;;;;;;;16.80;100.00;100412.50;5026715;28;20237;-75
2024/03/15 11:09:18;;;;;;;8.47;5.43;;;;;;;16.90;100.00;100406.50;5022576;28;20234;-75
2024/03/15 11:11:55;;;;;;;11.73;6.00;;;;;;;16.99;100.00;100413.03;5015552;28;20205;-74